Fort Lauderdale Hollywood International Airport
KFLL : now visible

Airfield :











YOU CAN JOIN US ON...

 
LOGIN :

Register | Disclaimer

   EN    FR    IT 

 









Legend :    VFR   Marginal VFR   IFR   Intensive IFR   Very Intensive IFR
Visi :
Ceiling :
>= 8 km
>= 3000ft
5 to 8 km
1000 to 3000 ft
1500m to 5 km
500 to 1000 ft
800 to 1500m
200 to 500 ft
< 800m
< 200 ft
Symbols :   Thunderstorms  Fog  Heavy snow  Heavy precipitations  Wind > 20 kt






- Airport Elevation : 9 ft
- IATA code : FLL


KFLL - Fort Lauderdale Hollywood International

CURRENT METAR :
  • 231453Z 07008KT 10SM SCT035 31/18 A3000 RMK AO2 SLP158 T03060183 50003

EXPIRED METARs :
  • 231353Z VRB04KT 10SM FEW035 30/19 A3000 RMK AO2 SLP159 T03000189
  • 231253Z 36005KT 10SM FEW030 29/21 A3000 RMK AO2 SLP159 T02890206
  • 231153Z 35004KT 10SM FEW035 27/21 A2999 RMK AO2 SLP155 T02670211 10272 20244 50010
  • 231053Z 35005KT 10SM FEW035 FEW045 25/21 A2999 RMK AO2 SLP155 T02500211

TAF KFLL
Valid from the 23 at 12:00 until the 24 at 18:00 UTC


231123Z 2312/2418 VRB04KT P6SM FEW030
FM231500 08007KT P6SM FEW030 SCT050
FM231800 09011G20KT P6SM SCT030 SCT050
FM240400 VRB04KT P6SM FEW060
KZMA FIR / North America



MET'MAP, your aeronautical weather chart ! - Copyright ORBIFLY December 2007 - Disclaimer

ORBIFLY MET'MAP TEAM :

Programming & Development : Alexandra Zaïnal
Original concept : Baudouin d'Aumeries
Technical & hardware support : Manuel Goepfert
Assistance : Marc-Olivier Méhu




SOURCES & CREDITS :

   NOAA       Earth
Advisory